createdAt,value
2022-08-19T00:00:16.769Z,5.15
2022-08-19T00:05:57.625Z,5.32
2022-08-19T00:12:50.510Z,5.18
2022-08-19T00:19:44.506Z,5.40
2022-08-19T00:22:38.890Z,5.60
2022-08-19T00:25:08.275Z,5.68
2022-08-19T00:28:05.410Z,5.75
2022-08-19T00:30:39.649Z,5.63
2022-08-19T00:33:09.164Z,5.57
2022-08-19T00:35:39.675Z,5.47
2022-08-19T00:38:07.915Z,6.30
2022-08-19T00:40:37.931Z,6.65
2022-08-19T00:43:10.965Z,5.80
2022-08-19T00:45:39.127Z,5.55
2022-08-19T00:48:15.090Z,5.68
2022-08-19T00:50:51.823Z,5.70
2022-08-19T00:53:35.065Z,6.10
2022-08-19T00:56:07.346Z,5.75
2022-08-19T00:59:00.714Z,5.97
2022-08-19T01:05:56.413Z,5.82
2022-08-19T01:08:41.569Z,6.10
2022-08-19T01:12:08.682Z,5.22
2022-08-19T01:17:24.173Z,6.45
2022-08-19T01:19:57.289Z,6.13
2022-08-19T01:22:43.251Z,5.85
2022-08-19T01:25:14.993Z,6.32
2022-08-19T01:31:55.201Z,6.10
2022-08-19T01:34:25.602Z,6.18
2022-08-19T01:36:53.686Z,5.72
2022-08-19T01:39:26.981Z,6.13
2022-08-19T01:42:14.167Z,6.10
2022-08-19T01:44:42.964Z,6.15
2022-08-19T01:47:19.016Z,6.03
2022-08-19T01:49:48.111Z,6.10
2022-08-19T01:53:06.971Z,6.00
2022-08-19T01:55:40.992Z,6.22
2022-08-19T01:58:18.747Z,6.00
2022-08-19T02:00:47.473Z,5.78
2022-08-19T02:03:24.854Z,6.05
2022-08-19T02:06:00.592Z,6.28
2022-08-19T02:08:42.462Z,5.90
2022-08-19T02:11:22.650Z,6.72
2022-08-19T02:13:51.466Z,6.15
2022-08-19T02:16:21.701Z,5.65
2022-08-19T02:18:50.266Z,5.80
2022-08-19T02:21:46.459Z,5.88
2022-08-19T02:24:16.647Z,6.13
2022-08-19T02:26:49.785Z,6.05
2022-08-19T02:29:17.903Z,6.32
2022-08-19T02:31:47.989Z,6.22
2022-08-19T02:34:18.826Z,5.75
2022-08-19T02:36:51.939Z,6.03
2022-08-19T02:39:25.563Z,6.63
2022-08-19T02:41:55.030Z,6.25
2022-08-19T02:44:31.322Z,6.15
2022-08-19T02:47:00.261Z,5.88
2022-08-19T02:49:40.727Z,6.22
2022-08-19T02:52:15.051Z,6.15
2022-08-19T02:54:43.207Z,6.77
2022-08-19T02:57:18.571Z,5.90
2022-08-19T03:02:21.930Z,5.75
2022-08-19T03:05:47.947Z,6.07
2022-08-19T03:09:14.638Z,6.40
2022-08-19T03:11:42.882Z,5.95
2022-08-19T03:14:13.794Z,5.82
2022-08-19T03:17:35.773Z,5.72
2022-08-19T03:20:57.680Z,6.35
2022-08-19T03:24:16.840Z,6.38
2022-08-19T03:26:51.980Z,5.22
2022-08-19T03:29:30.294Z,5.95
2022-08-19T03:32:01.839Z,6.28
2022-08-19T03:34:46.000Z,6.10
2022-08-19T03:37:19.304Z,5.95
2022-08-19T03:39:47.440Z,5.80
2022-08-19T03:42:47.752Z,5.72
2022-08-19T03:45:14.273Z,6.63
2022-08-19T03:47:57.666Z,6.35
2022-08-19T03:50:52.844Z,6.60
2022-08-19T03:53:21.968Z,5.80
2022-08-19T03:55:50.066Z,6.43
2022-08-19T03:58:33.362Z,6.40
2022-08-19T04:01:12.666Z,6.70
2022-08-19T04:03:46.495Z,6.32
2022-08-19T04:06:19.129Z,6.43
2022-08-19T04:08:48.743Z,6.35
2022-08-19T04:15:42.741Z,5.95
2022-08-19T04:18:13.307Z,6.18
2022-08-19T04:20:49.732Z,6.15
2022-08-19T04:23:17.916Z,5.80
2022-08-19T04:25:49.348Z,5.78
2022-08-19T04:28:19.853Z,6.28
2022-08-19T04:30:56.217Z,6.00
2022-08-19T04:33:33.960Z,5.88
2022-08-19T04:36:04.332Z,6.80
2022-08-19T04:38:40.274Z,6.38
2022-08-19T04:41:26.724Z,6.10
2022-08-19T04:44:15.180Z,6.47
2022-08-19T04:46:51.134Z,6.43
2022-08-19T04:49:23.973Z,6.93
2022-08-19T04:52:16.817Z,6.75
2022-08-19T04:54:49.260Z,6.80
2022-08-19T04:57:21.314Z,6.82
2022-08-19T04:59:49.641Z,7.25
2022-08-19T05:02:19.950Z,7.03
2022-08-19T05:04:51.601Z,7.05
2022-08-19T05:07:21.808Z,6.20
2022-08-19T05:09:58.180Z,6.28
2022-08-19T05:12:29.847Z,6.70
2022-08-19T05:15:02.008Z,6.78
2022-08-19T05:17:34.885Z,6.15
2022-08-19T05:20:28.951Z,7.00
2022-08-19T05:22:57.118Z,8.27
2022-08-19T05:25:26.759Z,7.05
2022-08-19T05:27:54.941Z,7.32
2022-08-19T05:30:33.649Z,6.63
2022-08-19T05:33:14.883Z,7.85
2022-08-19T05:35:45.274Z,6.45
2022-08-19T05:38:15.463Z,6.55
2022-08-19T05:40:46.944Z,6.47
2022-08-19T05:43:16.541Z,5.78
2022-08-19T05:45:45.158Z,6.07
2022-08-19T05:48:13.911Z,5.65
2022-08-19T05:50:45.396Z,6.25
2022-08-19T05:53:17.421Z,6.05
2022-08-19T05:55:45.678Z,5.75
2022-08-19T05:58:13.906Z,6.28
2022-08-19T06:00:42.196Z,6.18
2022-08-19T06:03:12.669Z,5.40
2022-08-19T06:05:49.460Z,5.53
2022-08-19T06:08:34.269Z,5.20
2022-08-19T06:11:18.782Z,5.63
2022-08-19T06:13:52.030Z,5.00
2022-08-19T06:16:28.847Z,4.90
2022-08-19T06:18:59.273Z,5.50
2022-08-19T06:21:30.544Z,5.20
2022-08-19T06:24:00.649Z,4.93
2022-08-19T06:26:29.502Z,4.88
2022-08-19T06:28:57.635Z,4.60
2022-08-19T06:31:34.717Z,4.20
2022-08-19T06:34:08.296Z,4.45
2022-08-19T06:36:40.671Z,4.78
2022-08-19T06:39:14.539Z,4.75
2022-08-19T06:41:50.606Z,4.88
2022-08-19T06:44:20.769Z,4.55
2022-08-19T06:46:53.661Z,4.72
2022-08-19T06:49:23.839Z,4.80
2022-08-19T06:51:52.998Z,4.45
2022-08-19T06:54:22.777Z,3.85
2022-08-19T06:56:52.225Z,4.22
2022-08-19T06:59:28.301Z,4.53
2022-08-19T07:01:59.813Z,4.15
2022-08-19T07:04:32.735Z,4.40
2022-08-19T07:07:12.509Z,3.97
2022-08-19T07:09:58.363Z,4.38
2022-08-19T07:12:32.369Z,3.95
2022-08-19T07:15:00.871Z,3.88
2022-08-19T07:17:29.669Z,3.85
2022-08-19T07:20:06.968Z,4.50
2022-08-19T07:22:40.582Z,4.28
2022-08-19T07:25:14.604Z,3.80
2022-08-19T07:27:46.253Z,4.82
2022-08-19T07:30:15.684Z,3.97
2022-08-19T07:32:45.813Z,3.97
2022-08-19T07:35:14.551Z,3.70
2022-08-19T07:37:45.310Z,3.63
2022-08-19T07:40:15.400Z,3.40
2022-08-19T07:42:45.939Z,3.97
2022-08-19T07:45:14.095Z,4.00
2022-08-19T07:47:48.093Z,3.47
2022-08-19T07:50:16.791Z,3.85
2022-08-19T07:52:48.021Z,3.65
2022-08-19T07:55:40.162Z,3.65
2022-08-19T07:58:09.517Z,3.47
2022-08-19T08:00:37.635Z,3.78
2022-08-19T08:03:05.976Z,3.58
2022-08-19T08:05:51.616Z,3.78
2022-08-19T08:08:36.874Z,3.50
2022-08-19T08:11:07.747Z,3.58
2022-08-19T08:13:39.068Z,4.03
2022-08-19T08:16:10.392Z,3.38
2022-08-19T08:18:43.368Z,3.22
2022-08-19T08:21:19.307Z,3.60
2022-08-19T08:23:47.480Z,3.65
2022-08-19T08:26:19.385Z,3.83
2022-08-19T08:28:49.463Z,3.40
2022-08-19T08:31:19.620Z,3.17
2022-08-19T08:33:50.282Z,3.67
2022-08-19T08:36:19.338Z,3.60
2022-08-19T08:38:47.615Z,3.47
2022-08-19T08:41:24.961Z,3.90
2022-08-19T08:43:54.436Z,3.25
2022-08-19T08:46:31.263Z,3.25
2022-08-19T08:49:06.740Z,3.70
2022-08-19T08:54:15.222Z,3.40
2022-08-19T08:56:46.974Z,3.20
2022-08-19T08:59:21.302Z,3.83
2022-08-19T09:01:49.731Z,3.25
2022-08-19T09:04:18.455Z,3.78
2022-08-19T09:06:57.153Z,3.55
2022-08-19T09:09:33.559Z,3.63
2022-08-19T09:12:11.697Z,3.42
2022-08-19T09:14:51.200Z,3.70
2022-08-19T09:17:29.200Z,3.63
2022-08-19T09:20:05.758Z,3.15
2022-08-19T09:22:38.882Z,3.28
2022-08-19T09:25:09.137Z,3.03
2022-08-19T09:27:43.684Z,3.35
2022-08-19T09:30:16.381Z,3.05
2022-08-19T09:32:46.413Z,3.30
2022-08-19T09:35:16.839Z,3.10
2022-08-19T09:37:48.687Z,2.97
2022-08-19T09:40:17.363Z,3.30
2022-08-19T09:42:49.908Z,3.40
2022-08-19T09:45:22.780Z,3.35
2022-08-19T09:47:53.823Z,3.15
2022-08-19T09:50:23.047Z,3.15
2022-08-19T09:52:54.110Z,3.47
2022-08-19T10:00:33.706Z,3.50
2022-08-19T10:03:01.858Z,3.53
2022-08-19T10:05:54.550Z,3.33
2022-08-19T10:08:26.716Z,3.03
2022-08-19T10:10:55.956Z,4.03
2022-08-19T10:13:28.070Z,3.67
2022-08-19T10:15:58.371Z,3.70
2022-08-19T10:18:28.229Z,3.85
2022-08-19T10:21:08.637Z,3.53
2022-08-19T10:23:38.376Z,3.42
2022-08-19T10:26:07.519Z,3.60
2022-08-19T10:28:39.304Z,3.13
2022-08-19T10:31:10.090Z,3.20
2022-08-19T10:33:53.213Z,3.50
2022-08-19T10:36:24.988Z,3.50
2022-08-19T10:38:57.007Z,3.67
2022-08-19T10:41:28.921Z,3.38
2022-08-19T10:44:03.978Z,3.50
2022-08-19T10:46:34.384Z,3.17
2022-08-19T10:49:04.033Z,3.53
2022-08-19T10:52:06.640Z,3.25
2022-08-19T10:54:56.690Z,3.60
2022-08-19T10:57:46.008Z,3.17
2022-08-19T11:00:20.367Z,3.30
2022-08-19T11:02:48.676Z,3.53
2022-08-19T11:05:18.200Z,3.40
2022-08-19T11:07:47.256Z,3.47
2022-08-19T11:10:21.761Z,3.22
2022-08-19T11:12:55.158Z,3.70
2022-08-19T11:15:24.811Z,3.55
2022-08-19T11:17:55.608Z,3.35
2022-08-19T11:20:24.730Z,3.92
2022-08-19T11:22:55.123Z,3.55
2022-08-19T11:25:23.342Z,3.35
2022-08-19T11:27:53.257Z,3.40
2022-08-19T11:30:21.969Z,3.22
2022-08-19T11:32:51.511Z,3.17
2022-08-19T11:35:21.072Z,3.03
2022-08-19T11:37:49.262Z,3.10
2022-08-19T11:40:17.839Z,3.35
2022-08-19T11:42:58.546Z,3.35
2022-08-19T11:45:28.371Z,3.92
2022-08-19T11:47:58.306Z,3.25
2022-08-19T11:50:34.546Z,3.55
2022-08-19T11:53:04.961Z,4.47
2022-08-19T11:55:43.442Z,4.20
2022-08-19T11:58:19.034Z,4.95
2022-08-19T12:00:47.660Z,5.05
2022-08-19T12:03:17.492Z,4.72
2022-08-19T12:05:45.671Z,4.97
2022-08-19T12:08:14.942Z,4.72
2022-08-19T12:10:43.819Z,5.45
2022-08-19T12:13:12.262Z,5.30
2022-08-19T12:15:41.911Z,5.40
2022-08-19T12:18:11.155Z,5.30
2022-08-19T12:20:42.763Z,5.90
2022-08-19T12:23:12.472Z,6.53
2022-08-19T12:25:52.495Z,6.50
2022-08-19T12:28:21.769Z,7.38
2022-08-19T12:30:51.098Z,7.32
2022-08-19T12:33:20.553Z,7.30
2022-08-19T12:35:50.337Z,7.63
2022-08-19T12:38:18.537Z,8.27
2022-08-19T12:40:48.496Z,8.35
2022-08-19T12:43:17.810Z,7.45
2022-08-19T12:45:46.121Z,5.50
2022-08-19T12:48:33.859Z,5.60
2022-08-19T12:51:09.104Z,5.38
2022-08-19T12:53:39.108Z,4.85
2022-08-19T12:56:12.192Z,4.50
2022-08-19T12:58:48.770Z,3.92
2022-08-19T13:01:23.014Z,3.90
2022-08-19T13:03:53.293Z,3.75
2022-08-19T13:06:23.698Z,4.00
2022-08-19T13:08:55.454Z,3.65
2022-08-19T13:11:33.447Z,3.35
2022-08-19T13:14:02.806Z,3.72
2022-08-19T13:16:31.247Z,3.78
2022-08-19T13:19:00.061Z,4.00
2022-08-19T13:21:31.004Z,3.58
2022-08-19T13:23:59.604Z,4.60
2022-08-19T13:26:27.877Z,4.63
2022-08-19T13:29:13.888Z,4.20
2022-08-19T13:32:01.633Z,4.05
2022-08-19T13:34:35.083Z,3.00
2022-08-19T13:37:06.400Z,3.58
2022-08-19T13:39:35.905Z,3.08
2022-08-19T13:42:05.797Z,3.45
2022-08-19T13:44:34.561Z,4.03
2022-08-19T13:47:06.762Z,3.30
2022-08-19T13:49:35.635Z,3.03
2022-08-19T13:52:06.548Z,2.95
2022-08-19T13:54:34.771Z,2.78
2022-08-19T13:57:02.957Z,3.33
2022-08-19T13:59:31.062Z,3.05
2022-08-19T14:02:00.627Z,4.82
2022-08-19T14:04:28.986Z,2.58
2022-08-19T14:06:57.191Z,3.28
2022-08-19T14:09:26.857Z,2.70
2022-08-19T14:11:56.405Z,2.88
2022-08-19T14:14:24.600Z,2.92
2022-08-19T14:16:52.972Z,3.13
2022-08-19T14:19:22.373Z,2.40
2022-08-19T14:21:51.721Z,1.90
2022-08-19T14:24:20.091Z,2.60
2022-08-19T14:26:49.954Z,2.15
2022-08-19T14:29:18.488Z,2.20
2022-08-19T14:31:46.729Z,2.13
2022-08-19T14:34:14.935Z,1.98
2022-08-19T14:36:43.268Z,1.92
2022-08-19T14:39:11.559Z,2.03
2022-08-19T14:41:42.471Z,1.65
2022-08-19T14:44:13.492Z,2.10
2022-08-19T14:46:41.916Z,2.22
2022-08-19T14:49:19.633Z,2.15
2022-08-19T14:51:48.715Z,2.00
2022-08-19T14:54:17.011Z,2.90
2022-08-19T14:56:45.163Z,1.55
2022-08-19T14:59:14.865Z,3.08
2022-08-19T15:01:44.298Z,2.42
2022-08-19T15:04:12.756Z,2.85
2022-08-19T15:06:41.898Z,2.35
2022-08-19T15:09:10.835Z,2.83
2022-08-19T15:11:39.886Z,2.03
2022-08-19T15:14:08.092Z,2.00
2022-08-19T15:16:42.853Z,2.55
2022-08-19T15:21:39.382Z,2.22
2022-08-19T15:24:08.133Z,2.30
2022-08-19T15:26:36.417Z,2.60
2022-08-19T15:29:06.428Z,1.88
2022-08-19T15:31:38.338Z,2.65
2022-08-19T15:34:08.507Z,2.10
2022-08-19T15:36:36.843Z,1.80
2022-08-19T15:39:07.374Z,2.33
2022-08-19T15:41:36.965Z,1.92
2022-08-19T15:44:09.687Z,2.05
2022-08-19T15:46:40.061Z,2.45
2022-08-19T15:49:11.122Z,2.95
2022-08-19T15:51:40.344Z,2.17
2022-08-19T15:54:10.421Z,2.17
2022-08-19T15:57:02.457Z,2.38
2022-08-19T15:59:56.563Z,2.30
2022-08-19T16:02:53.658Z,2.92
2022-08-19T16:05:43.930Z,2.53
2022-08-19T16:08:12.362Z,2.78
2022-08-19T16:10:41.176Z,4.18
2022-08-19T16:13:10.670Z,3.00
2022-08-19T16:15:44.739Z,2.47
2022-08-19T16:18:12.934Z,3.37
2022-08-19T16:20:42.847Z,3.33
2022-08-19T16:23:11.197Z,2.42
2022-08-19T16:25:39.509Z,2.63
2022-08-19T16:28:08.792Z,2.80
2022-08-19T16:30:38.836Z,2.85
2022-08-19T16:33:07.390Z,2.80
2022-08-19T16:35:35.493Z,3.60
2022-08-19T16:38:07.049Z,4.80
2022-08-19T16:40:36.039Z,3.80
2022-08-19T16:43:06.475Z,3.88
2022-08-19T16:45:34.497Z,2.83
2022-08-19T16:48:04.385Z,3.53
2022-08-19T16:50:48.795Z,2.95
2022-08-19T16:55:57.258Z,3.13
2022-08-19T16:58:28.148Z,2.70
2022-08-19T17:01:01.905Z,3.15
2022-08-19T17:03:36.987Z,3.15
2022-08-19T17:06:16.211Z,4.05
2022-08-19T17:08:52.048Z,3.40
2022-08-19T17:11:21.474Z,4.35
2022-08-19T17:13:51.166Z,4.35
2022-08-19T17:16:22.221Z,4.90
2022-08-19T17:18:53.106Z,6.00
2022-08-19T17:21:27.589Z,3.40
2022-08-19T17:23:58.006Z,4.25
2022-08-19T17:26:27.197Z,4.32
2022-08-19T17:28:57.315Z,4.03
2022-08-19T17:31:28.105Z,3.65
2022-08-19T17:33:59.044Z,3.60
2022-08-19T17:36:29.366Z,4.28
2022-08-19T17:39:02.610Z,4.20
2022-08-19T17:41:33.055Z,3.85
2022-08-19T17:44:01.567Z,3.22
2022-08-19T17:46:30.174Z,3.58
2022-08-19T17:48:59.075Z,4.05
2022-08-19T17:51:42.065Z,3.42
2022-08-19T17:54:15.449Z,4.13
2022-08-19T17:56:44.082Z,3.78
2022-08-19T17:59:14.038Z,6.47
2022-08-19T18:01:52.508Z,3.80
2022-08-19T18:04:23.052Z,3.88
2022-08-19T18:07:12.801Z,3.97
2022-08-19T18:09:49.533Z,4.47
2022-08-19T18:12:17.970Z,4.57
2022-08-19T18:14:46.443Z,4.50
2022-08-19T18:17:19.265Z,4.22
2022-08-19T18:19:48.747Z,4.10
2022-08-19T18:22:25.271Z,4.20
2022-08-19T18:24:55.152Z,3.65
2022-08-19T18:27:23.324Z,3.30
2022-08-19T18:29:51.941Z,3.92
2022-08-19T18:32:23.555Z,4.50
2022-08-19T18:34:52.637Z,4.68
2022-08-19T18:37:21.193Z,5.05
2022-08-19T18:40:06.920Z,4.95
2022-08-19T18:45:40.677Z,4.97
2022-08-19T18:48:29.647Z,5.50
2022-08-19T18:50:59.355Z,5.35
2022-08-19T18:53:29.834Z,5.60
2022-08-19T18:55:58.088Z,5.28
2022-08-19T18:58:34.500Z,5.22
2022-08-19T19:01:11.675Z,5.90
2022-08-19T19:03:43.728Z,5.10
2022-08-19T19:06:12.816Z,4.13
2022-08-19T19:08:41.476Z,2.97
2022-08-19T19:11:10.126Z,2.50
2022-08-19T19:13:41.903Z,3.15
2022-08-19T19:16:12.640Z,2.65
2022-08-19T19:18:41.006Z,2.40
2022-08-19T19:21:10.726Z,2.70
2022-08-19T19:23:41.192Z,3.28
2022-08-19T19:26:16.192Z,2.80
2022-08-19T19:28:47.696Z,3.00
2022-08-19T19:31:19.800Z,3.17
2022-08-19T19:33:48.222Z,2.70
2022-08-19T19:36:17.382Z,3.20
2022-08-19T19:38:48.931Z,3.53
2022-08-19T19:41:21.395Z,3.50
2022-08-19T19:44:10.019Z,4.22
2022-08-19T19:46:42.654Z,4.18
2022-08-19T19:49:12.669Z,4.00
2022-08-19T19:51:41.704Z,3.20
2022-08-19T19:54:14.075Z,3.50
2022-08-19T19:56:45.589Z,3.25
2022-08-19T19:59:15.882Z,3.13
2022-08-19T20:01:46.215Z,3.40
2022-08-19T20:04:16.001Z,3.72
2022-08-19T20:06:45.072Z,4.05
2022-08-19T20:09:16.306Z,3.53
2022-08-19T20:11:50.297Z,5.13
2022-08-19T20:14:26.809Z,3.00
2022-08-19T20:16:56.483Z,2.90
2022-08-19T20:19:27.522Z,4.07
2022-08-19T20:21:57.665Z,3.65
2022-08-19T20:24:32.522Z,2.80
2022-08-19T20:27:00.813Z,4.10
2022-08-19T20:29:38.034Z,3.17
2022-08-19T20:32:07.365Z,5.07
2022-08-19T20:34:37.407Z,4.20
2022-08-19T20:37:07.929Z,4.90
2022-08-19T20:39:37.282Z,4.70
2022-08-19T20:42:05.994Z,5.15
2022-08-19T20:44:36.105Z,5.97
2022-08-19T20:47:04.451Z,6.22
2022-08-19T20:49:33.798Z,5.90
2022-08-19T20:52:07.128Z,6.13
2022-08-19T20:54:35.773Z,5.68
2022-08-19T20:57:05.565Z,6.43
2022-08-19T20:59:39.413Z,6.25
2022-08-19T21:02:07.655Z,7.00
2022-08-19T21:04:35.906Z,5.82
2022-08-19T21:07:04.511Z,5.78
2022-08-19T21:09:32.680Z,6.22
2022-08-19T21:12:05.624Z,7.03
2022-08-19T21:14:39.213Z,7.50
2022-08-19T21:17:11.999Z,7.10
2022-08-19T21:19:40.634Z,6.65
2022-08-19T21:22:09.220Z,6.43
2022-08-19T21:24:38.562Z,7.28
2022-08-19T21:27:07.207Z,7.20
2022-08-19T21:29:39.167Z,5.90
2022-08-19T21:32:08.177Z,7.60
2022-08-19T21:34:38.101Z,6.72
2022-08-19T21:37:06.374Z,8.00
2022-08-19T21:39:52.909Z,7.38
2022-08-19T21:42:21.266Z,8.00
2022-08-19T21:44:53.180Z,7.75
2022-08-19T21:47:21.722Z,8.25
2022-08-19T21:49:50.044Z,9.50
2022-08-19T21:52:22.970Z,8.82
2022-08-19T21:54:51.219Z,8.95
2022-08-19T21:57:19.540Z,9.15
2022-08-19T21:59:47.941Z,6.85
2022-08-19T22:02:21.668Z,7.57
2022-08-19T22:04:52.523Z,7.25
2022-08-19T22:07:23.570Z,7.65
2022-08-19T22:09:52.353Z,7.63
2022-08-19T22:12:24.069Z,7.95
2022-08-19T22:14:53.193Z,7.95
2022-08-19T22:17:23.545Z,7.57
2022-08-19T22:19:52.677Z,6.85
2022-08-19T22:22:24.239Z,6.35
2022-08-19T22:24:52.773Z,6.07
2022-08-19T22:27:21.094Z,7.13
2022-08-19T22:29:52.405Z,6.57
2022-08-19T22:32:26.987Z,5.90
2022-08-19T22:34:59.825Z,5.82
2022-08-19T22:37:29.698Z,6.30
2022-08-19T22:39:57.812Z,6.22
2022-08-19T22:42:31.736Z,7.82
2022-08-19T22:45:01.506Z,6.40
2022-08-19T22:47:32.357Z,6.78
2022-08-19T22:50:09.053Z,8.05
2022-08-19T22:52:51.884Z,6.20
2022-08-19T22:55:20.555Z,7.05
2022-08-19T22:57:48.657Z,6.45
2022-08-19T23:00:17.466Z,5.70
2022-08-19T23:02:51.917Z,5.88
2022-08-19T23:05:22.798Z,5.15
2022-08-19T23:07:52.524Z,5.55
2022-08-19T23:10:26.618Z,5.35
2022-08-19T23:12:57.882Z,5.90
2022-08-19T23:15:28.344Z,5.85
2022-08-19T23:18:00.388Z,5.10
2022-08-19T23:20:30.478Z,5.57
2022-08-19T23:22:59.235Z,4.75
2022-08-19T23:25:33.255Z,5.55
2022-08-19T23:28:19.228Z,6.95
2022-08-19T23:30:48.839Z,5.30
2022-08-19T23:33:26.329Z,4.95
2022-08-19T23:36:17.818Z,5.03
2022-08-19T23:38:47.928Z,5.40
2022-08-19T23:41:17.669Z,5.07
2022-08-19T23:43:46.338Z,4.60
2022-08-19T23:46:27.457Z,4.63
2022-08-19T23:48:58.125Z,5.38
2022-08-19T23:51:26.494Z,4.63
2022-08-19T23:53:55.152Z,4.63
2022-08-19T23:56:26.248Z,4.10
2022-08-19T23:58:55.200Z,4.47
